Time;durP1;ratioP1;P1;durP2;ratioP2;P2;SDS_P1;SDS_P2;PMS_P1;PMS_P2;Temp;Humidity;BMP_temperature;BMP_pressure;BME280_temperature;BME280_humidity;BME280_pressure;Samples;Min_cycle;Max_cycle;Signal;HPM_P1;HPM_P2
2023/08/31 00:01:11;;;;;;;;;;;21.50;55.80;;;;;;5096430;28;19946;-57
2023/08/31 00:03:38;;;;;;;;;;;21.50;55.50;;;;;;5100414;28;19970;-57
2023/08/31 00:06:08;;;;;;;;;;;21.50;55.40;;;;;;5101833;28;19923;-57
2023/08/31 00:08:35;;;;;;;;;;;21.50;55.40;;;;;;5114571;28;19930;-57
2023/08/31 00:11:01;;;;;;;;;;;21.50;55.40;;;;;;5091572;28;19924;-57
2023/08/31 00:13:28;;;;;;;;;;;21.50;55.40;;;;;;5095711;28;19927;-58
2023/08/31 00:15:56;;;;;;;;;;;21.50;55.40;;;;;;5093690;28;20266;-57
2023/08/31 00:18:22;;;;;;;;;;;21.50;55.40;;;;;;5107332;28;20000;-57
2023/08/31 00:20:49;;;;;;;;;;;21.50;55.30;;;;;;5095622;28;19981;-57
2023/08/31 00:23:17;;;;;;;;;;;21.50;55.30;;;;;;5097111;28;19932;-58
2023/08/31 00:25:45;;;;;;;;;;;21.50;55.30;;;;;;5112751;28;19932;-57
2023/08/31 00:28:15;;;;;;;;;;;21.50;55.20;;;;;;5101482;28;19924;-57
2023/08/31 00:30:44;;;;;;;;;;;21.50;55.30;;;;;;5119900;28;20019;-58
2023/08/31 00:33:11;;;;;;;;;;;21.50;55.20;;;;;;5082326;28;19924;-57
2023/08/31 00:35:37;;;;;;;;;;;21.50;55.20;;;;;;5096439;28;19969;-57
2023/08/31 00:38:04;;;;;;;;;;;21.50;55.20;;;;;;5101648;28;19998;-57
2023/08/31 00:40:37;;;;;;;;;;;21.50;55.10;;;;;;5117804;28;19931;-57
2023/08/31 00:43:04;;;;;;;;;;;21.50;55.10;;;;;;5102440;28;20406;-57
2023/08/31 00:45:31;;;;;;;;;;;21.50;55.00;;;;;;5096321;28;19931;-58
2023/08/31 00:47:58;;;;;;;;;;;21.50;55.00;;;;;;5102975;28;19924;-57
2023/08/31 00:50:25;;;;;;;;;;;21.50;55.00;;;;;;5105393;28;19928;-57
2023/08/31 00:52:52;;;;;;;;;;;21.50;54.90;;;;;;5095409;28;20586;-57
2023/08/31 00:55:18;;;;;;;;;;;21.40;54.90;;;;;;5108954;28;19930;-57
2023/08/31 00:57:47;;;;;;;;;;;21.50;54.90;;;;;;5110122;28;19924;-57
2023/08/31 01:00:14;;;;;;;;;;;21.50;54.90;;;;;;5103106;28;19923;-58
2023/08/31 01:02:43;;;;;;;;;;;21.50;54.80;;;;;;5104346;28;19927;-57
2023/08/31 01:05:16;;;;;;;;;;;21.40;54.80;;;;;;5094776;28;19931;-57
2023/08/31 01:07:45;;;;;;;;;;;21.40;54.80;;;;;;5138535;27;19928;-58
2023/08/31 01:10:12;;;;;;;;;;;21.40;54.70;;;;;;5093132;28;19967;-57
2023/08/31 01:12:41;;;;;;;;;;;21.40;54.70;;;;;;5123299;27;19931;-57
2023/08/31 01:15:10;;;;;;;;;;;21.40;54.60;;;;;;5116681;27;19923;-57
2023/08/31 01:17:38;;;;;;;;;;;21.40;54.60;;;;;;5104767;28;19927;-57
2023/08/31 01:20:06;;;;;;;;;;;21.40;54.60;;;;;;5107764;27;19980;-57
2023/08/31 01:22:34;;;;;;;;;;;21.40;54.60;;;;;;5134607;27;19923;-57
2023/08/31 01:25:04;;;;;;;;;;;21.40;54.60;;;;;;5096183;27;20342;-57
2023/08/31 01:27:31;;;;;;;;;;;21.40;54.60;;;;;;5106185;27;19968;-57
2023/08/31 01:29:58;;;;;;;;;;;21.40;54.50;;;;;;5114366;27;19923;-57
2023/08/31 01:32:25;;;;;;;;;;;21.40;54.50;;;;;;5117011;27;19924;-57
2023/08/31 01:34:51;;;;;;;;;;;21.40;54.50;;;;;;5098571;28;19962;-57
2023/08/31 01:37:19;;;;;;;;;;;21.40;54.50;;;;;;5119321;27;19939;-58
2023/08/31 01:39:47;;;;;;;;;;;21.40;54.50;;;;;;5113522;27;19924;-57
2023/08/31 01:42:16;;;;;;;;;;;21.40;54.50;;;;;;5106645;27;19923;-57
2023/08/31 01:44:43;;;;;;;;;;;21.40;54.50;;;;;;5107839;27;19931;-58
2023/08/31 01:47:10;;;;;;;;;;;21.40;54.40;;;;;;5114604;27;19924;-57
2023/08/31 01:49:37;;;;;;;;;;;21.40;54.40;;;;;;5098858;28;19931;-58
2023/08/31 01:52:04;;;;;;;;;;;21.40;54.40;;;;;;5112832;27;19947;-57
2023/08/31 01:54:31;;;;;;;;;;;21.40;54.40;;;;;;5111274;27;20014;-57
2023/08/31 01:56:58;;;;;;;;;;;21.40;54.30;;;;;;5126052;27;19931;-57
2023/08/31 01:59:26;;;;;;;;;;;21.40;54.90;;;;;;5125110;27;19951;-57
2023/08/31 02:01:53;;;;;;;;;;;21.40;54.30;;;;;;5123667;27;19951;-57
2023/08/31 02:04:20;;;;;;;;;;;21.40;54.30;;;;;;5106655;28;19927;-57
2023/08/31 02:06:46;;;;;;;;;;;21.40;54.30;;;;;;5122670;27;19924;-57
2023/08/31 02:09:14;;;;;;;;;;;21.40;54.20;;;;;;5115989;27;19930;-57
2023/08/31 02:11:41;;;;;;;;;;;21.40;54.20;;;;;;5107661;27;20014;-57
2023/08/31 02:14:07;;;;;;;;;;;21.40;54.10;;;;;;5118413;27;19946;-58
2023/08/31 02:16:36;;;;;;;;;;;21.40;54.10;;;;;;5099953;28;19924;-57
2023/08/31 02:19:02;;;;;;;;;;;21.40;54.10;;;;;;5105376;27;19927;-58
2023/08/31 02:21:29;;;;;;;;;;;21.40;54.10;;;;;;5125423;27;19930;-57
2023/08/31 02:23:56;;;;;;;;;;;21.40;54.10;;;;;;5120096;27;20262;-58
2023/08/31 02:26:23;;;;;;;;;;;21.40;54.00;;;;;;5109260;27;19923;-57
2023/08/31 02:28:49;;;;;;;;;;;21.40;54.00;;;;;;5112467;28;19931;-57
2023/08/31 02:31:17;;;;;;;;;;;21.40;54.00;;;;;;5107867;27;19924;-57
2023/08/31 02:33:45;;;;;;;;;;;21.40;53.90;;;;;;5093191;28;19943;-57
2023/08/31 02:36:12;;;;;;;;;;;21.40;54.50;;;;;;5097869;28;19928;-57
2023/08/31 02:38:41;;;;;;;;;;;21.40;53.80;;;;;;5103349;28;19928;-57
2023/08/31 02:41:07;;;;;;;;;;;21.30;53.70;;;;;;5113005;28;19924;-57
2023/08/31 02:43:34;;;;;;;;;;;21.30;53.70;;;;;;5103568;28;19931;-57
2023/08/31 02:46:02;;;;;;;;;;;21.30;53.70;;;;;;5113009;27;20392;-58
2023/08/31 02:48:29;;;;;;;;;;;21.30;53.70;;;;;;5109028;27;19923;-57
2023/08/31 02:51:00;;;;;;;;;;;21.30;53.60;;;;;;5119875;27;19928;-57
2023/08/31 02:53:27;;;;;;;;;;;21.30;53.60;;;;;;5125146;27;19923;-57
2023/08/31 02:55:54;;;;;;;;;;;21.30;53.60;;;;;;5129898;27;20009;-57
2023/08/31 02:58:20;;;;;;;;;;;21.30;53.50;;;;;;5108546;27;19923;-57
2023/08/31 03:00:48;;;;;;;;;;;21.30;53.40;;;;;;5104282;27;19973;-57
2023/08/31 03:03:15;;;;;;;;;;;21.30;53.40;;;;;;5107322;27;19962;-57
2023/08/31 03:05:42;;;;;;;;;;;21.30;53.30;;;;;;5123749;27;19930;-57
2023/08/31 03:08:10;;;;;;;;;;;21.30;53.30;;;;;;5102760;28;20345;-57
2023/08/31 03:10:37;;;;;;;;;;;21.30;53.20;;;;;;5101725;27;19928;-57
2023/08/31 03:13:03;;;;;;;;;;;21.30;53.20;;;;;;5111668;27;19919;-57
2023/08/31 03:15:30;;;;;;;;;;;21.30;53.20;;;;;;5100609;27;19923;-58
2023/08/31 03:17:57;;;;;;;;;;;21.30;53.20;;;;;;5121910;27;19974;-57
2023/08/31 03:20:24;;;;;;;;;;;21.30;53.10;;;;;;5102690;28;19923;-58
2023/08/31 03:22:51;;;;;;;;;;;21.30;53.00;;;;;;5127383;27;20262;-57
2023/08/31 03:25:19;;;;;;;;;;;21.30;53.00;;;;;;5103520;27;20018;-57
2023/08/31 03:27:46;;;;;;;;;;;21.30;52.90;;;;;;5136271;27;19931;-57
2023/08/31 03:30:13;;;;;;;;;;;21.20;52.80;;;;;;5101825;28;19931;-57
2023/08/31 03:32:40;;;;;;;;;;;21.20;52.80;;;;;;5098130;28;19927;-57
2023/08/31 03:35:07;;;;;;;;;;;21.20;52.70;;;;;;5102886;28;19927;-57
2023/08/31 03:37:34;;;;;;;;;;;21.20;52.70;;;;;;5109394;27;20467;-57
2023/08/31 03:40:01;;;;;;;;;;;21.20;52.60;;;;;;5108233;27;20392;-57
2023/08/31 03:42:29;;;;;;;;;;;21.20;52.60;;;;;;5127668;27;19931;-58
2023/08/31 03:44:56;;;;;;;;;;;21.20;52.50;;;;;;5096332;28;19927;-57
2023/08/31 03:47:22;;;;;;;;;;;21.20;52.50;;;;;;5113474;27;19975;-57
2023/08/31 03:49:49;;;;;;;;;;;21.20;52.50;;;;;;5102377;28;19973;-57
2023/08/31 03:52:16;;;;;;;;;;;21.20;52.40;;;;;;5101434;28;19931;-57
2023/08/31 03:54:43;;;;;;;;;;;21.20;52.40;;;;;;5115113;28;19927;-57
2023/08/31 03:57:09;;;;;;;;;;;21.20;52.40;;;;;;5097112;28;19924;-57
2023/08/31 03:59:38;;;;;;;;;;;21.20;52.40;;;;;;5108323;28;19973;-57
2023/08/31 04:02:04;;;;;;;;;;;21.20;52.30;;;;;;5104609;28;19932;-57
2023/08/31 04:04:32;;;;;;;;;;;21.20;52.30;;;;;;5109207;28;19923;-57
2023/08/31 04:06:58;;;;;;;;;;;21.20;52.20;;;;;;5103473;28;19972;-58
2023/08/31 04:09:25;;;;;;;;;;;21.10;52.10;;;;;;5102178;28;19920;-58
2023/08/31 04:11:52;;;;;;;;;;;21.10;52.10;;;;;;5095176;28;19947;-57
2023/08/31 04:14:19;;;;;;;;;;;21.10;52.10;;;;;;5119965;28;19924;-58
2023/08/31 04:16:50;;;;;;;;;;;21.20;52.20;;;;;;5101587;28;19931;-58
2023/08/31 04:19:16;;;;;;;;;;;21.10;52.00;;;;;;5109712;28;19923;-58
2023/08/31 04:21:43;;;;;;;;;;;21.10;51.90;;;;;;5092996;28;20278;-57
2023/08/31 04:24:10;;;;;;;;;;;21.20;52.00;;;;;;5088969;28;19931;-57
2023/08/31 04:26:36;;;;;;;;;;;21.10;51.90;;;;;;5106213;28;20319;-58
2023/08/31 04:29:05;;;;;;;;;;;21.10;51.80;;;;;;5101401;28;19927;-57
2023/08/31 04:31:32;;;;;;;;;;;21.10;51.80;;;;;;5106498;28;19924;-58
2023/08/31 04:34:00;;;;;;;;;;;21.10;51.80;;;;;;5103637;28;20323;-58
2023/08/31 04:36:27;;;;;;;;;;;21.10;51.70;;;;;;5114385;28;19984;-58
2023/08/31 04:38:54;;;;;;;;;;;21.10;51.70;;;;;;5103525;28;19977;-57
2023/08/31 04:41:20;;;;;;;;;;;21.10;51.80;;;;;;5112484;28;19924;-57
2023/08/31 04:43:48;;;;;;;;;;;21.10;51.70;;;;;;5113751;27;19993;-57
2023/08/31 04:46:15;;;;;;;;;;;21.10;51.70;;;;;;5131821;27;19973;-58
2023/08/31 04:48:42;;;;;;;;;;;21.10;51.70;;;;;;5123276;27;19973;-58
2023/08/31 04:51:10;;;;;;;;;;;21.10;51.70;;;;;;5105546;27;19923;-57
2023/08/31 04:53:37;;;;;;;;;;;21.10;52.20;;;;;;5128449;27;19928;-57
2023/08/31 04:56:04;;;;;;;;;;;21.10;51.70;;;;;;5099614;27;19928;-58
2023/08/31 04:58:31;;;;;;;;;;;21.10;51.60;;;;;;5102719;28;19924;-58
2023/08/31 05:00:57;;;;;;;;;;;21.10;51.60;;;;;;5121997;27;19924;-57
2023/08/31 05:03:24;;;;;;;;;;;21.00;51.50;;;;;;5106103;28;19928;-58
2023/08/31 05:05:51;;;;;;;;;;;21.10;51.60;;;;;;5109551;27;19928;-57
2023/08/31 05:08:19;;;;;;;;;;;21.10;51.60;;;;;;5117523;27;19927;-57
2023/08/31 05:10:46;;;;;;;;;;;21.00;51.50;;;;;;5108851;27;19927;-57
2023/08/31 05:13:12;;;;;;;;;;;21.10;51.60;;;;;;5113062;28;19935;-57
2023/08/31 05:15:39;;;;;;;;;;;21.00;51.50;;;;;;5108072;28;19927;-57
2023/08/31 05:18:08;;;;;;;;;;;21.00;51.50;;;;;;5122764;27;19924;-57
2023/08/31 05:20:35;;;;;;;;;;;21.00;51.40;;;;;;5102235;28;19946;-57
2023/08/31 05:23:02;;;;;;;;;;;21.00;51.40;;;;;;5103871;27;19924;-57
2023/08/31 05:25:30;;;;;;;;;;;21.00;51.50;;;;;;5104763;28;19932;-57
2023/08/31 05:27:56;;;;;;;;;;;21.10;51.50;;;;;;5127521;27;19924;-57
2023/08/31 05:30:23;;;;;;;;;;;21.00;51.40;;;;;;5113870;28;19952;-57
2023/08/31 05:32:50;;;;;;;;;;;21.00;51.40;;;;;;5121583;27;19927;-57
2023/08/31 05:35:17;;;;;;;;;;;21.00;51.40;;;;;;5102291;27;19937;-57
2023/08/31 05:37:44;;;;;;;;;;;21.00;51.30;;;;;;5117127;27;19984;-57
2023/08/31 05:40:11;;;;;;;;;;;21.00;51.40;;;;;;5099287;28;19927;-58
2023/08/31 05:42:39;;;;;;;;;;;21.00;51.30;;;;;;5100152;28;19928;-58
2023/08/31 05:45:06;;;;;;;;;;;21.00;51.30;;;;;;5104906;27;19932;-58
2023/08/31 05:47:34;;;;;;;;;;;21.00;51.30;;;;;;5092951;28;19955;-57
2023/08/31 05:50:01;;;;;;;;;;;21.00;51.40;;;;;;5097103;28;19927;-58
2023/08/31 05:52:28;;;;;;;;;;;21.00;51.40;;;;;;5101983;27;20455;-57
2023/08/31 05:54:54;;;;;;;;;;;21.00;51.40;;;;;;5097113;27;19942;-58
2023/08/31 05:57:21;;;;;;;;;;;21.00;51.50;;;;;;5099724;27;19972;-57
2023/08/31 05:59:50;;;;;;;;;;;21.00;51.50;;;;;;5109730;27;19928;-58
2023/08/31 06:02:16;;;;;;;;;;;21.00;51.60;;;;;;5089858;28;20016;-58
2023/08/31 06:04:44;;;;;;;;;;;21.00;52.20;;;;;;5093311;28;19951;-58
2023/08/31 06:07:10;;;;;;;;;;;21.00;51.70;;;;;;5095014;28;19923;-58
2023/08/31 06:09:37;;;;;;;;;;;21.00;51.70;;;;;;5091003;28;19969;-58
2023/08/31 06:12:05;;;;;;;;;;;21.00;51.70;;;;;;5092890;27;19938;-58
2023/08/31 06:14:32;;;;;;;;;;;21.00;51.70;;;;;;5090675;28;19938;-58
2023/08/31 06:17:00;;;;;;;;;;;21.10;51.70;;;;;;5111686;27;19942;-58
2023/08/31 06:19:27;;;;;;;;;;;21.10;51.70;;;;;;5111369;27;19924;-58
2023/08/31 06:21:54;;;;;;;;;;;21.10;51.70;;;;;;5110401;27;20315;-58
2023/08/31 06:24:20;;;;;;;;;;;21.10;51.70;;;;;;5093761;28;19932;-58
2023/08/31 06:26:47;;;;;;;;;;;21.10;51.70;;;;;;5090597;28;19950;-57
2023/08/31 06:29:14;;;;;;;;;;;21.10;51.60;;;;;;5092587;28;19932;-57
2023/08/31 06:31:41;;;;;;;;;;;21.10;51.60;;;;;;5093926;28;19968;-57
2023/08/31 06:34:09;;;;;;;;;;;21.10;51.60;;;;;;5120160;27;19934;-57
2023/08/31 06:36:36;;;;;;;;;;;21.10;51.60;;;;;;5093081;28;19928;-58
2023/08/31 06:39:03;;;;;;;;;;;21.10;51.60;;;;;;5093235;28;19924;-58
2023/08/31 06:41:30;;;;;;;;;;;21.10;51.60;;;;;;5095712;28;19924;-57
2023/08/31 06:43:57;;;;;;;;;;;21.10;51.60;;;;;;5107884;27;19963;-58
2023/08/31 06:46:24;;;;;;;;;;;21.10;51.60;;;;;;5093347;28;19928;-57
2023/08/31 06:48:50;;;;;;;;;;;21.10;51.60;;;;;;5090076;27;20579;-58
2023/08/31 06:51:18;;;;;;;;;;;21.10;51.60;;;;;;5114579;27;19924;-58
2023/08/31 06:53:45;;;;;;;;;;;21.10;51.60;;;;;;5111046;27;20373;-57
2023/08/31 06:56:12;;;;;;;;;;;21.10;51.50;;;;;;5090595;28;19924;-58
2023/08/31 06:58:39;;;;;;;;;;;21.20;51.60;;;;;;5091967;28;19965;-58
2023/08/31 07:01:06;;;;;;;;;;;21.20;51.60;;;;;;5113543;27;20129;-59
2023/08/31 07:03:33;;;;;;;;;;;21.20;51.60;;;;;;5116811;27;19934;-58
2023/08/31 07:06:00;;;;;;;;;;;21.20;51.60;;;;;;5092932;28;19928;-56
2023/08/31 07:08:28;;;;;;;;;;;21.20;51.60;;;;;;5123238;27;19932;-58
2023/08/31 07:10:55;;;;;;;;;;;21.20;51.60;;;;;;5110519;28;19928;-57
2023/08/31 07:13:22;;;;;;;;;;;21.20;51.50;;;;;;5093582;28;19930;-56
2023/08/31 07:15:49;;;;;;;;;;;21.20;51.50;;;;;;5108090;27;19954;-57
2023/08/31 07:18:16;;;;;;;;;;;21.20;51.50;;;;;;5092299;28;19931;-57
2023/08/31 07:20:43;;;;;;;;;;;21.20;51.50;;;;;;5092185;28;19930;-59
2023/08/31 07:23:10;;;;;;;;;;;21.20;51.40;;;;;;5123777;27;19953;-58
2023/08/31 07:25:38;;;;;;;;;;;21.20;51.50;;;;;;5092661;28;19927;-57
2023/08/31 07:28:05;;;;;;;;;;;21.20;51.50;;;;;;5092513;28;19935;-60
2023/08/31 07:30:33;;;;;;;;;;;21.20;51.50;;;;;;5092954;28;19924;-60
2023/08/31 07:33:03;;;;;;;;;;;21.20;51.50;;;;;;5090525;28;20022;-59
2023/08/31 07:35:29;;;;;;;;;;;21.20;51.40;;;;;;5092867;28;19928;-59
2023/08/31 07:37:56;;;;;;;;;;;21.20;51.40;;;;;;5123204;27;19932;-59
2023/08/31 07:40:23;;;;;;;;;;;21.20;51.50;;;;;;5099679;28;19946;-59
2023/08/31 07:42:52;;;;;;;;;;;21.30;51.50;;;;;;5095252;28;19959;-58
2023/08/31 07:45:18;;;;;;;;;;;21.30;51.50;;;;;;5125712;27;19928;-61
2023/08/31 07:47:45;;;;;;;;;;;21.30;51.50;;;;;;5120714;27;19924;-59
2023/08/31 07:50:14;;;;;;;;;;;21.30;51.50;;;;;;5092782;28;20345;-59
2023/08/31 07:52:40;;;;;;;;;;;21.30;51.50;;;;;;5098116;28;20365;-61
2023/08/31 07:55:08;;;;;;;;;;;21.30;51.50;;;;;;5097141;28;19931;-59
2023/08/31 07:57:35;;;;;;;;;;;21.30;51.50;;;;;;5098409;28;19923;-58
2023/08/31 08:00:03;;;;;;;;;;;21.30;51.50;;;;;;5094259;28;20381;-59
2023/08/31 08:02:30;;;;;;;;;;;21.30;51.50;;;;;;5112826;28;19924;-60
2023/08/31 08:04:57;;;;;;;;;;;21.40;51.60;;;;;;5093225;28;19928;-61
2023/08/31 08:07:24;;;;;;;;;;;21.30;51.50;;;;;;5108434;28;20304;-60
2023/08/31 08:09:51;;;;;;;;;;;21.40;51.60;;;;;;5093910;28;20036;-59
2023/08/31 08:12:18;;;;;;;;;;;21.40;51.60;;;;;;5116424;28;19935;-59
2023/08/31 08:14:45;;;;;;;;;;;21.40;51.50;;;;;;5115168;28;19957;-59
2023/08/31 08:17:13;;;;;;;;;;;21.40;51.50;;;;;;5097691;28;19924;-59
2023/08/31 08:19:40;;;;;;;;;;;21.40;51.50;;;;;;5098195;28;19939;-58
2023/08/31 08:22:07;;;;;;;;;;;21.40;51.50;;;;;;5100341;27;19928;-59
2023/08/31 08:24:34;;;;;;;;;;;21.40;51.50;;;;;;5097013;28;20425;-59
2023/08/31 08:27:00;;;;;;;;;;;21.40;51.50;;;;;;5099755;28;19966;-60
2023/08/31 08:29:27;;;;;;;;;;;21.40;51.50;;;;;;5099095;28;20381;-59
2023/08/31 08:31:54;;;;;;;;;;;21.40;51.50;;;;;;5118775;27;19930;-60
2023/08/31 08:34:22;;;;;;;;;;;21.40;51.40;;;;;;5096680;28;19924;-58
2023/08/31 08:36:49;;;;;;;;;;;21.40;51.40;;;;;;5115472;27;19920;-60
2023/08/31 08:39:15;;;;;;;;;;;21.40;51.40;;;;;;5094896;28;19924;-59
2023/08/31 08:41:42;;;;;;;;;;;21.40;51.30;;;;;;5114785;27;20024;-59
2023/08/31 08:44:09;;;;;;;;;;;21.40;51.40;;;;;;5096449;28;19923;-59
2023/08/31 08:46:36;;;;;;;;;;;21.40;51.30;;;;;;5095273;28;19923;-59
2023/08/31 08:49:03;;;;;;;;;;;21.40;51.30;;;;;;5097334;27;19963;-58
2023/08/31 08:51:31;;;;;;;;;;;21.40;51.30;;;;;;5094509;28;19923;-58
2023/08/31 08:53:59;;;;;;;;;;;21.40;51.30;;;;;;5123387;27;20125;-59
2023/08/31 08:56:26;;;;;;;;;;;21.40;51.30;;;;;;5096511;28;19923;-58
2023/08/31 08:58:53;;;;;;;;;;;21.40;51.30;;;;;;5097855;27;19938;-59
2023/08/31 09:01:22;;;;;;;;;;;21.50;51.40;;;;;;5095429;28;19965;-58
2023/08/31 09:03:49;;;;;;;;;;;21.50;51.50;;;;;;5096433;27;19924;-60
2023/08/31 09:06:16;;;;;;;;;;;21.50;51.50;;;;;;5101190;28;19920;-59
2023/08/31 09:08:44;;;;;;;;;;;21.50;51.50;;;;;;5116177;27;19933;-58
2023/08/31 09:11:20;;;;;;;;;;;21.50;51.50;;;;;;5116068;27;20768;-60
2023/08/31 09:13:47;;;;;;;;;;;21.50;51.50;;;;;;5113629;27;19998;-60
2023/08/31 09:16:20;;;;;;;;;;;21.50;51.50;;;;;;5116037;27;19923;-59
2023/08/31 09:18:46;;;;;;;;;;;21.50;51.50;;;;;;5132741;27;20002;-59
2023/08/31 09:21:13;;;;;;;;;;;21.50;51.50;;;;;;5095859;28;19924;-60
2023/08/31 09:23:40;;;;;;;;;;;21.50;51.50;;;;;;5117184;27;19924;-59
2023/08/31 09:26:08;;;;;;;;;;;21.50;51.50;;;;;;5108317;28;20569;-59
2023/08/31 09:28:35;;;;;;;;;;;21.50;51.40;;;;;;5116791;27;19973;-61
2023/08/31 09:31:05;;;;;;;;;;;21.50;51.40;;;;;;5102730;27;19928;-59
2023/08/31 09:33:32;;;;;;;;;;;21.50;51.40;;;;;;5097542;28;19932;-58
2023/08/31 09:36:01;;;;;;;;;;;21.50;51.30;;;;;;5097789;27;19924;-59
2023/08/31 09:38:28;;;;;;;;;;;21.50;51.30;;;;;;5100225;27;19930;-58
2023/08/31 09:40:55;;;;;;;;;;;21.60;51.60;;;;;;5100959;27;19924;-59
2023/08/31 09:43:24;;;;;;;;;;;21.50;51.30;;;;;;5114040;27;19928;-60
2023/08/31 09:45:51;;;;;;;;;;;21.60;51.40;;;;;;5080504;28;19932;-60
2023/08/31 09:48:18;;;;;;;;;;;21.60;51.40;;;;;;5103565;27;19934;-59
2023/08/31 09:50:45;;;;;;;;;;;21.60;51.40;;;;;;5100533;28;19923;-59
2023/08/31 09:53:12;;;;;;;;;;;21.60;51.40;;;;;;5129329;27;19967;-59
2023/08/31 09:55:39;;;;;;;;;;;21.60;51.40;;;;;;5093771;28;19935;-59
2023/08/31 09:58:07;;;;;;;;;;;21.60;51.40;;;;;;5098611;28;19924;-59
2023/08/31 10:00:36;;;;;;;;;;;21.60;51.40;;;;;;5094417;28;20304;-60
2023/08/31 10:03:03;;;;;;;;;;;21.60;51.40;;;;;;5095681;28;19931;-58
2023/08/31 10:05:30;;;;;;;;;;;21.60;51.40;;;;;;5093401;28;19928;-60
2023/08/31 10:07:58;;;;;;;;;;;21.60;51.40;;;;;;5103211;27;19924;-59
2023/08/31 10:10:24;;;;;;;;;;;21.60;51.30;;;;;;5106554;28;19927;-59
2023/08/31 10:12:52;;;;;;;;;;;21.60;51.40;;;;;;5097748;27;19930;-61
2023/08/31 10:15:19;;;;;;;;;;;21.60;51.40;;;;;;5096137;28;19932;-59
2023/08/31 10:17:47;;;;;;;;;;;21.60;51.40;;;;;;5096648;28;19935;-60
2023/08/31 10:20:15;;;;;;;;;;;21.60;51.40;;;;;;5098168;28;19963;-60
2023/08/31 10:22:42;;;;;;;;;;;21.60;51.40;;;;;;5096507;28;20387;-59
2023/08/31 10:25:09;;;;;;;;;;;21.60;51.40;;;;;;5093354;27;19972;-59
2023/08/31 10:27:40;;;;;;;;;;;21.60;51.30;;;;;;5094859;28;19924;-59
2023/08/31 10:30:17;;;;;;;;;;;21.60;51.30;;;;;;5115553;27;19963;-58
2023/08/31 10:32:43;;;;;;;;;;;21.60;51.20;;;;;;5093323;28;19923;-57
2023/08/31 10:35:12;;;;;;;;;;;21.60;51.30;;;;;;5096856;27;19980;-58
2023/08/31 10:37:40;;;;;;;;;;;21.60;51.20;;;;;;5125818;27;19976;-57
2023/08/31 10:40:07;;;;;;;;;;;21.60;51.20;;;;;;5104253;28;19949;-55
2023/08/31 10:42:34;;;;;;;;;;;21.60;51.20;;;;;;5107623;27;19951;-57
2023/08/31 10:45:06;;;;;;;;;;;21.60;51.20;;;;;;5097173;27;20367;-57
2023/08/31 10:47:40;;;;;;;;;;;21.70;51.30;;;;;;5092825;28;19953;-57
2023/08/31 10:50:18;;;;;;;;;;;21.70;51.20;;;;;;5128218;27;19931;-57
2023/08/31 10:52:47;;;;;;;;;;;21.70;51.20;;;;;;5100495;28;19984;-57
2023/08/31 10:55:14;;;;;;;;;;;21.70;51.00;;;;;;5126286;27;19927;-56
2023/08/31 10:57:51;;;;;;;;;;;21.70;50.80;;;;;;5105992;27;19916;-57
2023/08/31 11:00:48;;;;;;;;;;;21.60;50.90;;;;;;5085460;28;19924;-58
2023/08/31 11:03:15;;;;;;;;;;;21.60;51.00;;;;;;5085686;28;19935;-57
2023/08/31 11:05:51;;;;;;;;;;;21.60;51.10;;;;;;5088743;28;19931;-57
2023/08/31 11:08:21;;;;;;;;;;;21.60;51.40;;;;;;5101947;28;19927;-57
2023/08/31 11:10:48;;;;;;;;;;;21.60;51.50;;;;;;5108440;28;19930;-57
2023/08/31 11:13:19;;;;;;;;;;;21.60;51.60;;;;;;5090420;28;19928;-57
2023/08/31 11:15:46;;;;;;;;;;;21.60;51.70;;;;;;5107425;28;19928;-57
2023/08/31 11:18:15;;;;;;;;;;;21.70;51.70;;;;;;5087321;28;19928;-58
2023/08/31 11:20:42;;;;;;;;;;;21.70;51.60;;;;;;5093522;28;19924;-58
2023/08/31 11:23:08;;;;;;;;;;;21.70;51.50;;;;;;5092255;28;19932;-60
2023/08/31 11:25:35;;;;;;;;;;;21.70;51.50;;;;;;5107227;28;19924;-58
2023/08/31 11:28:04;;;;;;;;;;;21.70;51.50;;;;;;5089068;28;19930;-58
2023/08/31 11:30:32;;;;;;;;;;;21.70;51.40;;;;;;5090592;28;19932;-58
2023/08/31 11:33:02;;;;;;;;;;;21.70;51.40;;;;;;5089035;28;19928;-58
2023/08/31 11:35:32;;;;;;;;;;;21.70;51.30;;;;;;5106970;28;19924;-59
2023/08/31 11:37:59;;;;;;;;;;;21.70;51.20;;;;;;5087876;28;19932;-57
2023/08/31 11:40:26;;;;;;;;;;;21.70;51.10;;;;;;5107190;28;19928;-59
2023/08/31 11:42:53;;;;;;;;;;;21.70;51.00;;;;;;5088966;28;19928;-58
2023/08/31 11:45:20;;;;;;;;;;;21.80;51.20;;;;;;5088606;28;19931;-59
2023/08/31 11:47:48;;;;;;;;;;;21.80;51.00;;;;;;5088996;28;20007;-58
2023/08/31 11:50:15;;;;;;;;;;;21.80;51.10;;;;;;5088709;28;20289;-58
2023/08/31 11:52:42;;;;;;;;;;;21.80;50.90;;;;;;5086652;28;19971;-58
2023/08/31 11:55:13;;;;;;;;;;;21.80;50.90;;;;;;5102718;28;19928;-57
2023/08/31 11:57:39;;;;;;;;;;;21.80;50.90;;;;;;5087686;28;19928;-58
2023/08/31 12:00:07;;;;;;;;;;;21.80;50.90;;;;;;5084723;28;19924;-58
2023/08/31 12:02:35;;;;;;;;;;;21.80;50.80;;;;;;5085441;28;19931;-58
2023/08/31 12:05:05;;;;;;;;;;;21.80;50.80;;;;;;5088663;28;19924;-58
2023/08/31 12:07:32;;;;;;;;;;;21.80;50.70;;;;;;5083699;28;19961;-57
2023/08/31 12:10:03;;;;;;;;;;;21.80;50.60;;;;;;5090637;28;19935;-58
2023/08/31 12:12:32;;;;;;;;;;;21.80;50.60;;;;;;5077610;28;19930;-58
2023/08/31 12:15:00;;;;;;;;;;;21.80;50.60;;;;;;5093330;28;19949;-60
2023/08/31 12:17:27;;;;;;;;;;;21.80;50.60;;;;;;5077313;28;19967;-59
2023/08/31 12:19:56;;;;;;;;;;;21.90;50.50;;;;;;5090610;28;19931;-57
2023/08/31 12:22:24;;;;;;;;;;;21.80;50.50;;;;;;5076478;28;19970;-59
2023/08/31 12:24:51;;;;;;;;;;;21.80;50.40;;;;;;5063498;28;19928;-59
2023/08/31 12:27:18;;;;;;;;;;;21.90;50.40;;;;;;5077329;28;19924;-56
2023/08/31 12:29:46;;;;;;;;;;;21.90;50.40;;;;;;5086264;28;20011;-58
2023/08/31 12:32:13;;;;;;;;;;;21.90;50.30;;;;;;5073213;28;19931;-60
2023/08/31 12:34:40;;;;;;;;;;;21.90;50.30;;;;;;5076245;28;19931;-58
2023/08/31 12:37:08;;;;;;;;;;;21.90;50.30;;;;;;5085050;28;19924;-59
2023/08/31 12:39:37;;;;;;;;;;;21.90;50.10;;;;;;5073841;28;19921;-59
2023/08/31 12:42:04;;;;;;;;;;;21.90;50.00;;;;;;5076016;28;19924;-61
2023/08/31 12:44:33;;;;;;;;;;;21.90;49.90;;;;;;5076541;28;19986;-57
2023/08/31 12:46:59;;;;;;;;;;;21.90;49.90;;;;;;5082751;28;19928;-58
2023/08/31 12:49:26;;;;;;;;;;;21.90;49.80;;;;;;5093242;28;19920;-58
2023/08/31 12:51:53;;;;;;;;;;;21.90;49.80;;;;;;5076515;28;20118;-59
2023/08/31 12:54:20;;;;;;;;;;;21.90;49.90;;;;;;5076512;28;20377;-57
2023/08/31 12:56:48;;;;;;;;;;;21.90;50.00;;;;;;5074992;28;19938;-59
2023/08/31 12:59:15;;;;;;;;;;;21.90;50.10;;;;;;5078178;28;19924;-58
2023/08/31 13:01:42;;;;;;;;;;;21.90;50.00;;;;;;5076093;28;19928;-57
2023/08/31 13:04:08;;;;;;;;;;;21.90;50.00;;;;;;5078474;28;19927;-59
2023/08/31 13:06:36;;;;;;;;;;;21.90;49.80;;;;;;5092418;28;19957;-60
2023/08/31 13:09:05;;;;;;;;;;;21.90;49.70;;;;;;5084937;28;19928;-57
2023/08/31 13:11:32;;;;;;;;;;;21.90;49.60;;;;;;5079037;28;19938;-58
2023/08/31 13:14:00;;;;;;;;;;;21.90;49.60;;;;;;5075096;28;19932;-56
2023/08/31 13:16:28;;;;;;;;;;;21.90;49.50;;;;;;5076768;28;19932;-58
2023/08/31 13:18:54;;;;;;;;;;;21.90;49.30;;;;;;5075710;28;19928;-56
2023/08/31 13:21:21;;;;;;;;;;;21.90;49.30;;;;;;5074824;28;19993;-58
2023/08/31 13:23:48;;;;;;;;;;;21.90;49.20;;;;;;5073626;28;19928;-59
2023/08/31 13:26:15;;;;;;;;;;;21.90;49.10;;;;;;5067925;28;20324;-59
2023/08/31 13:28:43;;;;;;;;;;;21.90;49.00;;;;;;5090544;28;19928;-59
2023/08/31 13:31:11;;;;;;;;;;;21.90;49.00;;;;;;5074525;28;19932;-59
2023/08/31 13:33:38;;;;;;;;;;;21.90;48.90;;;;;;5072297;28;19928;-56
2023/08/31 13:36:05;;;;;;;;;;;21.90;48.90;;;;;;5091393;28;19932;-58
2023/08/31 13:38:32;;;;;;;;;;;21.90;48.90;;;;;;5072295;28;19944;-59
2023/08/31 13:40:58;;;;;;;;;;;21.90;48.90;;;;;;5077438;28;20158;-58
2023/08/31 13:43:25;;;;;;;;;;;21.90;48.90;;;;;;5078773;28;19935;-58
2023/08/31 13:45:52;;;;;;;;;;;21.90;48.90;;;;;;5071453;28;19928;-59
2023/08/31 13:48:22;;;;;;;;;;;21.90;48.90;;;;;;5076910;28;19960;-58
2023/08/31 13:50:49;;;;;;;;;;;21.90;48.80;;;;;;5079251;28;19970;-58
2023/08/31 13:53:15;;;;;;;;;;;21.90;48.80;;;;;;5082160;28;19932;-58
2023/08/31 13:55:42;;;;;;;;;;;21.90;48.90;;;;;;5079315;28;19939;-58
2023/08/31 13:58:09;;;;;;;;;;;21.90;49.00;;;;;;5072204;28;19928;-59
2023/08/31 14:00:36;;;;;;;;;;;21.90;49.00;;;;;;5076855;28;19928;-58
2023/08/31 14:03:03;;;;;;;;;;;21.90;49.00;;;;;;5076652;28;19924;-58
2023/08/31 14:05:31;;;;;;;;;;;21.90;49.20;;;;;;5080857;28;19969;-58
2023/08/31 14:07:58;;;;;;;;;;;21.90;49.20;;;;;;5075055;28;19920;-59
2023/08/31 14:10:25;;;;;;;;;;;21.90;49.20;;;;;;5073166;28;19928;-60
2023/08/31 14:12:52;;;;;;;;;;;21.90;49.20;;;;;;5072424;28;19977;-58
2023/08/31 14:15:18;;;;;;;;;;;22.00;49.30;;;;;;5091024;28;19932;-58
2023/08/31 14:17:45;;;;;;;;;;;22.00;49.40;;;;;;5075512;28;19924;-58